createdAt,value
2023-08-22T00:03:15.336Z,3.35
2023-08-22T00:08:08.945Z,6.95
2023-08-22T00:12:59.025Z,3.95
2023-08-22T00:17:49.921Z,5.78
2023-08-22T00:22:40.914Z,4.75
2023-08-22T00:27:33.686Z,3.88
2023-08-22T00:32:23.598Z,12.52
2023-08-22T00:37:13.532Z,9.20
2023-08-22T00:42:04.579Z,7.80
2023-08-22T00:46:57.194Z,4.68
2023-08-22T00:51:47.651Z,6.55
2023-08-22T00:56:38.749Z,4.75
2023-08-22T01:01:29.019Z,6.25
2023-08-22T01:06:29.477Z,6.68
2023-08-22T01:11:27.157Z,5.82
2023-08-22T01:16:18.599Z,6.45
2023-08-22T01:21:09.926Z,5.25
2023-08-22T01:26:04.873Z,5.50
2023-08-22T01:31:01.961Z,7.23
2023-08-22T01:35:54.750Z,5.18
2023-08-22T01:40:45.744Z,6.47
2023-08-22T01:45:38.365Z,8.00
2023-08-22T01:50:28.435Z,5.88
2023-08-22T01:55:20.583Z,5.97
2023-08-22T02:00:12.520Z,5.78
2023-08-22T02:05:05.034Z,6.10
2023-08-22T02:09:54.969Z,6.43
2023-08-22T02:14:46.371Z,9.20
2023-08-22T02:19:36.364Z,8.65
2023-08-22T02:24:28.962Z,6.47
2023-08-22T02:29:18.912Z,6.00
2023-08-22T02:34:08.866Z,6.18
2023-08-22T02:38:58.819Z,7.90
2023-08-22T02:43:51.725Z,11.85
2023-08-22T02:48:42.034Z,10.65
2023-08-22T02:53:32.007Z,8.35
2023-08-22T02:58:21.921Z,10.50
2023-08-22T03:03:15.509Z,10.40
2023-08-22T03:08:06.812Z,12.70
2023-08-22T03:12:56.801Z,9.90
2023-08-22T03:17:47.210Z,9.88
2023-08-22T03:22:39.999Z,14.00
2023-08-22T03:27:31.430Z,14.13
2023-08-22T03:32:21.451Z,12.60
2023-08-22T03:37:11.732Z,14.90
2023-08-22T03:42:04.558Z,14.88
2023-08-22T03:46:54.621Z,15.77
2023-08-22T03:51:57.433Z,14.65
2023-08-22T03:56:48.477Z,13.40
2023-08-22T04:01:41.231Z,14.02
2023-08-22T04:06:31.208Z,19.38
2023-08-22T04:11:21.296Z,13.48
2023-08-22T04:16:12.325Z,15.88
2023-08-22T04:21:06.296Z,13.90
2023-08-22T04:25:56.496Z,12.60
2023-08-22T04:30:46.839Z,17.48
2023-08-22T04:35:38.786Z,14.93
2023-08-22T04:40:32.848Z,12.27
2023-08-22T04:45:35.134Z,16.67
2023-08-22T04:50:26.323Z,15.95
2023-08-22T04:55:16.444Z,14.57
2023-08-22T05:00:24.893Z,14.05
2023-08-22T05:05:15.682Z,14.98
2023-08-22T05:10:09.342Z,14.15
2023-08-22T05:15:00.379Z,17.45
2023-08-22T05:19:56.044Z,14.95
2023-08-22T05:24:46.896Z,12.80
2023-08-22T05:29:38.018Z,12.95
2023-08-22T05:34:28.987Z,15.15
2023-08-22T05:39:21.573Z,16.27
2023-08-22T05:44:12.881Z,11.18
2023-08-22T05:49:05.100Z,13.82
2023-08-22T05:53:55.516Z,15.18
2023-08-22T05:58:48.815Z,13.35
2023-08-22T06:03:38.679Z,12.70
2023-08-22T06:08:28.841Z,11.65
2023-08-22T06:13:19.038Z,10.70
2023-08-22T06:18:13.429Z,11.57
2023-08-22T06:23:04.558Z,12.02
2023-08-22T06:27:55.552Z,12.63
2023-08-22T06:32:45.910Z,9.73
2023-08-22T06:37:39.204Z,9.48
2023-08-22T06:42:29.423Z,9.70
2023-08-22T06:47:19.367Z,15.23
2023-08-22T06:52:09.462Z,11.50
2023-08-22T06:57:01.959Z,10.30
2023-08-22T07:01:52.024Z,11.05
2023-08-22T07:06:41.987Z,12.77
2023-08-22T07:11:31.908Z,12.13
2023-08-22T07:16:24.447Z,13.98
2023-08-22T07:21:14.464Z,9.55
2023-08-22T07:26:04.693Z,11.50
2023-08-22T07:30:55.098Z,12.40
2023-08-22T07:35:48.508Z,10.73
2023-08-22T07:40:41.900Z,9.52
2023-08-22T07:45:31.984Z,9.57
2023-08-22T07:50:22.210Z,9.38
2023-08-22T07:55:15.115Z,13.18
2023-08-22T08:00:07.808Z,13.88
2023-08-22T08:05:01.812Z,13.27
2023-08-22T08:09:51.759Z,15.15
2023-08-22T08:14:44.421Z,14.00
2023-08-22T08:19:34.403Z,14.60
2023-08-22T08:24:24.470Z,12.40
2023-08-22T08:29:14.472Z,15.65
2023-08-22T08:34:07.216Z,13.55
2023-08-22T08:38:57.133Z,13.73
2023-08-22T08:43:49.941Z,14.43
2023-08-22T08:48:42.228Z,10.70
2023-08-22T08:53:36.772Z,17.52
2023-08-22T08:58:26.630Z,10.45
2023-08-22T09:03:16.636Z,13.25
2023-08-22T09:08:21.051Z,11.18
2023-08-22T09:13:13.737Z,12.90
2023-08-22T09:18:04.066Z,10.55
2023-08-22T09:22:54.128Z,12.00
2023-08-22T09:27:44.407Z,9.88
2023-08-22T09:32:37.280Z,10.35
2023-08-22T09:37:35.110Z,11.20
2023-08-22T09:42:25.546Z,8.88
2023-08-22T09:47:16.125Z,11.30
2023-08-22T09:52:09.404Z,10.18
2023-08-22T09:57:01.677Z,13.48
2023-08-22T10:01:52.689Z,10.57
2023-08-22T10:06:47.010Z,9.20
2023-08-22T10:11:44.444Z,10.32
2023-08-22T10:16:36.261Z,7.18
2023-08-22T10:21:27.587Z,5.63
2023-08-22T10:26:17.784Z,8.05
2023-08-22T10:31:10.458Z,12.00
2023-08-22T10:36:12.434Z,8.55
2023-08-22T10:41:02.337Z,5.32
2023-08-22T10:45:54.639Z,6.53
2023-08-22T10:50:49.465Z,4.43
2023-08-22T10:55:42.128Z,6.13
2023-08-22T11:00:32.566Z,3.85
2023-08-22T11:05:22.667Z,6.65
2023-08-22T11:10:17.639Z,7.57
2023-08-22T11:15:08.797Z,4.65
2023-08-22T11:19:59.526Z,4.90
2023-08-22T11:24:50.516Z,5.13
2023-08-22T11:29:47.826Z,9.82
2023-08-22T11:34:37.827Z,5.40
2023-08-22T11:39:27.745Z,4.28
2023-08-22T11:44:17.702Z,5.85
2023-08-22T11:49:13.868Z,6.43
2023-08-22T11:54:04.044Z,4.05
2023-08-22T11:58:55.581Z,6.13
2023-08-22T12:03:46.746Z,5.93
2023-08-22T12:08:39.501Z,6.78
2023-08-22T12:13:29.634Z,7.00
2023-08-22T12:18:20.559Z,5.15
2023-08-22T12:23:10.977Z,5.40
2023-08-22T12:28:04.603Z,5.32
2023-08-22T12:32:54.617Z,5.53
2023-08-22T12:37:45.202Z,3.95
2023-08-22T12:42:35.215Z,8.77
2023-08-22T12:47:27.705Z,6.40
2023-08-22T12:52:17.598Z,8.82
2023-08-22T12:57:07.801Z,8.10
2023-08-22T13:01:57.917Z,9.02
2023-08-22T13:06:50.620Z,8.68
2023-08-22T13:11:44.202Z,6.72
2023-08-22T13:16:34.354Z,13.50
2023-08-22T13:21:26.302Z,7.10
2023-08-22T13:26:18.995Z,8.90
2023-08-22T13:31:09.068Z,6.68
2023-08-22T13:35:59.091Z,7.38
2023-08-22T13:40:49.009Z,8.70
2023-08-22T13:45:41.830Z,5.88
2023-08-22T13:50:31.836Z,9.20
2023-08-22T13:55:21.940Z,6.50
2023-08-22T14:00:13.482Z,4.55
2023-08-22T14:05:07.836Z,7.35
2023-08-22T14:09:57.879Z,6.00
2023-08-22T14:14:47.848Z,5.45
2023-08-22T14:19:39.268Z,4.28
2023-08-22T14:24:32.132Z,10.35
2023-08-22T14:29:22.142Z,3.72
2023-08-22T14:34:12.506Z,7.93
2023-08-22T14:39:02.499Z,3.65
2023-08-22T14:43:55.100Z,9.25
2023-08-22T14:48:44.995Z,6.95
2023-08-22T14:53:35.019Z,9.27
2023-08-22T14:58:25.119Z,6.88
2023-08-22T15:03:17.862Z,7.32
2023-08-22T15:08:09.233Z,4.45
2023-08-22T15:12:59.187Z,5.72
2023-08-22T15:17:49.789Z,6.50
2023-08-22T15:22:42.495Z,6.78
2023-08-22T15:27:32.456Z,3.78
2023-08-22T15:32:22.624Z,5.18
2023-08-22T15:37:13.957Z,5.25
2023-08-22T15:42:06.646Z,2.55
2023-08-22T15:46:56.811Z,4.38
2023-08-22T15:51:46.876Z,5.50
2023-08-22T15:56:37.285Z,1.67
2023-08-22T16:01:30.063Z,4.00
2023-08-22T16:06:20.046Z,4.20
2023-08-22T16:11:10.003Z,3.80
2023-08-22T16:15:59.949Z,3.35
2023-08-22T16:20:53.385Z,1.13
2023-08-22T16:25:45.941Z,1.42
2023-08-22T16:30:35.981Z,1.50
2023-08-22T16:35:26.017Z,2.45
2023-08-22T16:40:19.733Z,1.10
2023-08-22T16:45:10.784Z,1.65
2023-08-22T16:50:00.934Z,0.85
2023-08-22T16:54:52.609Z,4.10
2023-08-22T16:59:45.131Z,2.88
2023-08-22T17:04:35.066Z,4.18
2023-08-22T17:09:25.060Z,1.98
2023-08-22T17:14:14.983Z,3.72
2023-08-22T17:19:07.780Z,2.13
2023-08-22T17:23:57.793Z,2.00
2023-08-22T17:28:50.000Z,2.25
2023-08-22T17:33:41.818Z,2.70
2023-08-22T17:38:34.629Z,1.60
2023-08-22T17:43:24.613Z,3.00
2023-08-22T17:48:14.548Z,3.13
2023-08-22T17:53:04.495Z,1.38
2023-08-22T17:57:57.171Z,1.02
2023-08-22T18:02:47.187Z,2.90
2023-08-22T18:07:37.205Z,1.45
2023-08-22T18:12:27.034Z,4.30
2023-08-22T18:17:19.806Z,1.75
2023-08-22T18:22:09.921Z,1.45
2023-08-22T18:26:59.825Z,2.17
2023-08-22T18:31:49.851Z,2.05
2023-08-22T18:36:42.376Z,2.08
2023-08-22T18:41:32.412Z,1.10
2023-08-22T18:46:26.119Z,2.53
2023-08-22T18:51:16.129Z,3.58
2023-08-22T18:56:10.153Z,2.33
2023-08-22T19:01:01.031Z,1.52
2023-08-22T19:05:51.010Z,2.70
2023-08-22T19:10:47.870Z,1.92
2023-08-22T19:15:41.196Z,3.22
2023-08-22T19:20:31.190Z,2.13
2023-08-22T19:25:21.308Z,3.25
2023-08-22T19:30:12.586Z,2.70
2023-08-22T19:35:05.686Z,2.03
2023-08-22T19:39:55.553Z,2.85
2023-08-22T19:44:45.480Z,3.65
2023-08-22T19:49:35.544Z,3.35
2023-08-22T19:54:28.005Z,3.58
2023-08-22T19:59:18.077Z,4.28
2023-08-22T20:04:08.079Z,4.78
2023-08-22T20:08:58.092Z,3.30
2023-08-22T20:13:52.100Z,4.20
2023-08-22T20:18:42.194Z,3.08
2023-08-22T20:23:32.112Z,3.28
2023-08-22T20:28:22.029Z,3.78
2023-08-22T20:33:14.464Z,4.90
2023-08-22T20:38:04.540Z,4.05
2023-08-22T20:42:58.083Z,2.80
2023-08-22T20:47:48.294Z,5.13
2023-08-22T20:52:41.002Z,5.28
2023-08-22T20:57:31.036Z,3.00
2023-08-22T21:02:21.130Z,5.63
2023-08-22T21:07:11.351Z,3.90
2023-08-22T21:12:04.174Z,4.82
2023-08-22T21:16:54.081Z,4.60
2023-08-22T21:21:43.969Z,3.75
2023-08-22T21:26:35.995Z,7.15
2023-08-22T21:31:28.485Z,3.28
2023-08-22T21:36:18.809Z,6.07
2023-08-22T21:41:08.887Z,5.03
2023-08-22T21:45:58.882Z,4.57
2023-08-22T21:50:51.630Z,3.78
2023-08-22T21:55:41.466Z,5.10
2023-08-22T22:00:32.287Z,5.20
2023-08-22T22:05:22.241Z,3.55
2023-08-22T22:10:15.074Z,5.65
2023-08-22T22:15:05.009Z,4.22
2023-08-22T22:19:55.058Z,5.47
2023-08-22T22:24:45.081Z,3.47
2023-08-22T22:29:37.690Z,7.47
2023-08-22T22:34:27.495Z,5.22
2023-08-22T22:39:17.512Z,4.40
2023-08-22T22:44:08.907Z,6.18
2023-08-22T22:49:01.425Z,3.38
2023-08-22T22:53:51.425Z,5.95
2023-08-22T22:58:41.424Z,5.93
2023-08-22T23:03:31.382Z,4.68
2023-08-22T23:08:24.164Z,3.53
2023-08-22T23:13:14.110Z,6.85
2023-08-22T23:18:04.100Z,3.85
2023-08-22T23:22:54.318Z,5.88
2023-08-22T23:27:47.242Z,6.25
2023-08-22T23:32:38.301Z,3.35
2023-08-22T23:37:28.423Z,6.15
2023-08-22T23:42:19.393Z,4.10
2023-08-22T23:47:12.032Z,4.22
2023-08-22T23:52:01.878Z,5.05
2023-08-22T23:56:51.802Z,4.47
